createdAt,value
2022-10-05T00:01:22.171Z,79.17
2022-10-05T00:03:52.032Z,79.30
2022-10-05T00:06:20.045Z,79.15
2022-10-05T00:08:48.115Z,79.40
2022-10-05T00:11:17.212Z,79.60
2022-10-05T00:13:45.286Z,79.42
2022-10-05T00:16:19.907Z,79.60
2022-10-05T00:18:51.406Z,79.55
2022-10-05T00:21:21.828Z,79.29
2022-10-05T00:23:50.377Z,79.66
2022-10-05T00:26:25.613Z,79.30
2022-10-05T00:28:54.669Z,79.60
2022-10-05T00:31:25.495Z,79.37
2022-10-05T00:33:55.248Z,79.69
2022-10-05T00:36:23.601Z,79.73
2022-10-05T00:38:52.519Z,79.90
2022-10-05T00:41:39.123Z,80.32
2022-10-05T00:44:23.917Z,80.46
2022-10-05T00:47:01.501Z,80.78
2022-10-05T00:49:48.189Z,80.76
2022-10-05T00:52:31.531Z,80.77
2022-10-05T00:55:24.380Z,81.04
2022-10-05T00:58:30.254Z,81.18
2022-10-05T01:01:10.340Z,81.10
2022-10-05T01:04:04.270Z,81.04
2022-10-05T01:06:35.106Z,80.99
2022-10-05T01:09:18.636Z,80.70
2022-10-05T01:12:04.771Z,80.61
2022-10-05T01:14:55.371Z,80.53
2022-10-05T01:17:40.277Z,80.50
2022-10-05T01:20:32.740Z,80.35
2022-10-05T01:23:37.782Z,80.14
2022-10-05T01:26:30.536Z,80.21
2022-10-05T01:29:22.870Z,80.37
2022-10-05T01:32:17.562Z,80.50
2022-10-05T01:34:59.158Z,80.32
2022-10-05T01:37:38.386Z,80.32
2022-10-05T01:40:09.532Z,80.20
2022-10-05T01:42:46.307Z,80.27
2022-10-05T01:46:01.847Z,80.14
2022-10-05T01:49:01.709Z,80.02
2022-10-05T01:51:38.694Z,80.05
2022-10-05T01:54:45.979Z,80.17
2022-10-05T01:57:35.253Z,80.44
2022-10-05T02:00:10.481Z,80.65
2022-10-05T02:03:02.627Z,80.53
2022-10-05T02:05:39.405Z,80.58
2022-10-05T02:08:15.001Z,80.45
2022-10-05T02:10:52.952Z,80.80
2022-10-05T02:13:29.426Z,80.92
2022-10-05T02:16:06.040Z,81.08
2022-10-05T02:19:14.829Z,81.61
2022-10-05T02:21:49.241Z,81.94
2022-10-05T02:24:29.912Z,81.92
2022-10-05T02:26:59.315Z,81.87
2022-10-05T02:29:32.807Z,82.02
2022-10-05T02:32:07.231Z,82.27
2022-10-05T02:34:43.289Z,82.25
2022-10-05T02:37:54.572Z,82.09
2022-10-05T02:40:37.991Z,81.93
2022-10-05T02:43:39.158Z,81.79
2022-10-05T02:46:37.126Z,81.81
2022-10-05T02:49:38.784Z,81.90
2022-10-05T02:52:18.948Z,81.82
2022-10-05T02:55:04.938Z,81.69
2022-10-05T02:57:58.199Z,81.71
2022-10-05T03:00:32.205Z,81.49
2022-10-05T03:03:09.135Z,81.66
2022-10-05T03:05:39.824Z,81.85
2022-10-05T03:08:18.346Z,81.81
2022-10-05T03:10:57.980Z,81.92
2022-10-05T03:13:51.485Z,82.13
2022-10-05T03:16:35.090Z,82.12
2022-10-05T03:19:24.505Z,81.94
2022-10-05T03:22:14.349Z,81.68
2022-10-05T03:25:01.457Z,81.36
2022-10-05T03:27:29.423Z,81.65
2022-10-05T03:30:13.163Z,81.89
2022-10-05T03:33:12.059Z,81.55
2022-10-05T03:36:05.321Z,81.84
2022-10-05T03:38:48.651Z,82.44
2022-10-05T03:41:37.818Z,82.47
2022-10-05T03:44:23.608Z,82.73
2022-10-05T03:47:02.734Z,82.92
2022-10-05T03:49:50.064Z,83.21
2022-10-05T03:52:28.342Z,82.73
2022-10-05T03:55:03.520Z,82.74
2022-10-05T03:57:38.917Z,82.66
2022-10-05T04:00:19.951Z,81.97
2022-10-05T04:03:05.615Z,82.15
2022-10-05T04:05:47.822Z,82.85
2022-10-05T04:08:32.887Z,83.28
2022-10-05T04:11:10.382Z,83.15
2022-10-05T04:13:46.233Z,83.28
2022-10-05T04:16:31.307Z,83.16
2022-10-05T04:19:03.165Z,83.54
2022-10-05T04:21:55.052Z,83.47
2022-10-05T04:24:26.755Z,83.33
2022-10-05T04:27:00.565Z,83.07
2022-10-05T04:29:48.496Z,83.13
2022-10-05T04:32:36.535Z,83.52
2022-10-05T04:35:05.530Z,83.80
2022-10-05T04:38:01.146Z,83.20
2022-10-05T04:40:55.375Z,83.56
2022-10-05T04:43:56.891Z,83.59
2022-10-05T04:47:04.732Z,83.52
2022-10-05T04:50:09.529Z,82.99
2022-10-05T04:53:05.961Z,82.57
2022-10-05T04:56:09.768Z,82.42
2022-10-05T04:59:01.405Z,82.92
2022-10-05T05:01:55.686Z,83.00
2022-10-05T05:04:35.937Z,83.11
2022-10-05T05:07:36.363Z,82.95
2022-10-05T05:10:19.500Z,83.03
2022-10-05T05:13:24.537Z,83.09
2022-10-05T05:15:56.353Z,82.71
2022-10-05T05:18:51.708Z,82.71
2022-10-05T05:21:57.151Z,82.55
2022-10-05T05:24:30.650Z,82.78
2022-10-05T05:27:28.317Z,82.67
2022-10-05T05:30:04.482Z,82.70
2022-10-05T05:32:37.225Z,82.60
2022-10-05T05:35:27.346Z,82.07
2022-10-05T05:38:24.711Z,81.58
2022-10-05T05:41:17.667Z,82.03
2022-10-05T05:43:49.249Z,82.56
2022-10-05T05:46:58.332Z,82.45
2022-10-05T05:49:25.398Z,82.47
2022-10-05T05:52:01.693Z,82.43
2022-10-05T05:54:59.533Z,82.03
2022-10-05T05:58:01.497Z,82.11
2022-10-05T06:00:45.860Z,81.68
2022-10-05T06:03:41.366Z,81.49
2022-10-05T06:06:14.662Z,82.04
2022-10-05T06:08:48.163Z,81.93
2022-10-05T06:11:50.638Z,82.06
2022-10-05T06:14:43.592Z,82.33
2022-10-05T06:17:17.642Z,82.08
2022-10-05T06:19:48.857Z,81.69
2022-10-05T06:22:31.978Z,81.04
2022-10-05T06:25:00.155Z,81.10
2022-10-05T06:27:34.378Z,80.18
2022-10-05T06:30:15.190Z,79.99
2022-10-05T06:33:09.426Z,80.26
2022-10-05T06:35:49.581Z,80.33
2022-10-05T06:38:55.440Z,80.08
2022-10-05T06:41:51.262Z,80.31
2022-10-05T06:44:22.093Z,80.16
2022-10-05T06:47:13.517Z,80.45
2022-10-05T06:50:19.023Z,80.49
2022-10-05T06:53:10.374Z,80.46
2022-10-05T06:55:55.967Z,80.54
2022-10-05T06:58:40.624Z,80.31
2022-10-05T07:01:18.456Z,80.29
2022-10-05T07:04:25.001Z,80.04
2022-10-05T07:07:05.772Z,78.95
2022-10-05T07:09:52.784Z,78.18
2022-10-05T07:12:26.904Z,77.35
2022-10-05T07:15:25.797Z,76.58
2022-10-05T07:18:27.553Z,75.89
2022-10-05T07:21:14.164Z,74.73
2022-10-05T07:23:57.610Z,74.95
2022-10-05T07:26:40.148Z,74.90
2022-10-05T07:29:08.275Z,74.70
2022-10-05T07:31:58.624Z,74.30
2022-10-05T07:34:26.747Z,73.90
2022-10-05T07:37:48.376Z,73.49
2022-10-05T07:40:47.373Z,72.81
2022-10-05T07:43:51.131Z,72.14
2022-10-05T07:46:35.327Z,71.60
2022-10-05T07:49:15.586Z,70.47
2022-10-05T07:51:53.905Z,69.79
2022-10-05T07:54:49.613Z,69.56
2022-10-05T07:57:26.426Z,70.16
2022-10-05T08:00:16.498Z,70.54
2022-10-05T08:03:14.393Z,71.08
2022-10-05T08:05:45.393Z,70.06
2022-10-05T08:08:30.670Z,70.75
2022-10-05T08:11:09.287Z,70.67
2022-10-05T08:13:56.205Z,70.30
2022-10-05T08:16:30.975Z,69.31
2022-10-05T08:19:21.634Z,68.73
2022-10-05T08:22:00.556Z,68.02
2022-10-05T08:24:43.903Z,69.41
2022-10-05T08:27:33.828Z,67.76
2022-10-05T08:30:10.973Z,67.05
2022-10-05T08:32:55.374Z,64.94
2022-10-05T08:35:44.092Z,64.19
2022-10-05T08:38:18.615Z,64.51
2022-10-05T08:41:04.987Z,63.59
2022-10-05T08:43:55.173Z,61.49
2022-10-05T08:46:32.468Z,61.31
2022-10-05T08:49:03.304Z,62.15
2022-10-05T08:51:53.496Z,62.98
2022-10-05T08:54:41.308Z,62.65
2022-10-05T08:57:30.804Z,62.52
2022-10-05T09:00:20.489Z,61.58
2022-10-05T09:03:00.667Z,61.71
2022-10-05T09:06:00.870Z,62.13
2022-10-05T09:08:57.608Z,62.66
2022-10-05T09:11:35.469Z,62.49
2022-10-05T09:14:34.511Z,61.88
2022-10-05T09:17:25.930Z,62.33
2022-10-05T09:20:11.156Z,62.06
2022-10-05T09:22:54.836Z,62.90
2022-10-05T09:25:36.227Z,63.02
2022-10-05T09:28:44.640Z,62.81
2022-10-05T09:31:32.556Z,63.49
2022-10-05T09:34:27.071Z,61.42
2022-10-05T09:37:26.271Z,60.98
2022-10-05T09:40:17.755Z,59.71
2022-10-05T09:42:58.047Z,59.24
2022-10-05T09:46:10.947Z,59.13
2022-10-05T09:48:41.605Z,58.19
2022-10-05T09:51:27.721Z,56.25
2022-10-05T09:53:58.437Z,56.82
2022-10-05T09:56:52.003Z,57.32
2022-10-05T09:59:42.918Z,54.24
2022-10-05T10:02:32.418Z,53.38
2022-10-05T10:05:26.055Z,53.57
2022-10-05T10:08:35.619Z,53.21
2022-10-05T10:11:25.279Z,51.34
2022-10-05T10:14:14.544Z,51.29
2022-10-05T10:17:02.793Z,51.09
2022-10-05T10:19:59.539Z,51.57
2022-10-05T10:23:04.473Z,50.33
2022-10-05T10:25:51.284Z,50.60
2022-10-05T10:28:41.458Z,49.53
2022-10-05T10:31:42.721Z,49.92
2022-10-05T10:34:41.619Z,50.14
2022-10-05T10:37:46.968Z,48.49
2022-10-05T10:40:14.841Z,46.34
2022-10-05T10:43:27.758Z,46.93
2022-10-05T10:46:01.907Z,44.44
2022-10-05T10:48:29.808Z,41.77
2022-10-05T10:51:13.008Z,40.38
2022-10-05T10:54:19.843Z,39.85
2022-10-05T10:57:01.028Z,38.38
2022-10-05T10:59:41.797Z,37.16
2022-10-05T11:02:30.907Z,36.89
2022-10-05T11:05:34.056Z,36.53
2022-10-05T11:08:17.175Z,37.46
2022-10-05T11:11:09.318Z,38.64
2022-10-05T11:14:04.626Z,38.47
2022-10-05T11:16:58.095Z,38.14
2022-10-05T11:20:04.381Z,37.31
2022-10-05T11:22:51.761Z,35.82
2022-10-05T11:25:33.164Z,33.18
2022-10-05T11:28:28.951Z,32.45
2022-10-05T11:31:15.681Z,32.33
2022-10-05T11:34:20.742Z,32.90
2022-10-05T11:37:22.297Z,32.41
2022-10-05T11:39:59.030Z,31.80
2022-10-05T11:42:50.769Z,31.33
2022-10-05T11:45:43.652Z,31.14
2022-10-05T11:48:26.838Z,30.67
2022-10-05T11:51:12.268Z,29.89
2022-10-05T11:53:53.437Z,29.41
2022-10-05T11:56:49.537Z,28.62
2022-10-05T11:59:49.382Z,28.56
2022-10-05T12:02:29.350Z,29.42
2022-10-05T12:05:16.647Z,30.20
2022-10-05T12:08:07.457Z,30.92
2022-10-05T12:10:41.474Z,32.74
2022-10-05T12:13:19.580Z,33.03
2022-10-05T12:16:13.825Z,34.58
2022-10-05T12:18:48.801Z,33.81
2022-10-05T12:21:56.654Z,33.63
2022-10-05T12:24:48.227Z,34.00
2022-10-05T12:27:25.539Z,34.31
2022-10-05T12:30:02.421Z,35.17
2022-10-05T12:33:00.917Z,36.12
2022-10-05T12:35:49.318Z,36.58
2022-10-05T12:38:28.683Z,36.86
2022-10-05T12:41:10.969Z,37.00
2022-10-05T12:44:12.518Z,37.20
2022-10-05T12:47:31.540Z,36.91
2022-10-05T12:50:24.793Z,38.18
2022-10-05T12:52:58.825Z,38.20
2022-10-05T12:55:57.653Z,37.67
2022-10-05T12:58:44.465Z,36.39
2022-10-05T13:01:30.810Z,35.62
2022-10-05T13:04:01.503Z,34.65
2022-10-05T13:06:44.600Z,34.09
2022-10-05T13:09:25.289Z,33.20
2022-10-05T13:11:57.864Z,32.27
2022-10-05T13:14:44.478Z,30.07
2022-10-05T13:17:41.834Z,29.76
2022-10-05T13:20:24.035Z,29.03
2022-10-05T13:23:35.023Z,30.01
2022-10-05T13:26:08.027Z,31.07
2022-10-05T13:28:44.365Z,31.50
2022-10-05T13:31:22.705Z,32.47
2022-10-05T13:34:15.221Z,33.46
2022-10-05T13:36:58.961Z,33.82
2022-10-05T13:39:44.749Z,32.67
2022-10-05T13:42:19.494Z,32.90
2022-10-05T13:44:59.325Z,32.80
2022-10-05T13:47:48.799Z,32.27
2022-10-05T13:50:28.461Z,31.89
2022-10-05T13:53:17.098Z,30.00
2022-10-05T13:56:00.358Z,30.30
2022-10-05T13:58:33.826Z,29.78
2022-10-05T14:01:06.919Z,28.23
2022-10-05T14:03:38.016Z,27.67
2022-10-05T14:06:13.512Z,27.20
2022-10-05T14:09:01.857Z,27.22
2022-10-05T14:11:35.699Z,26.41
2022-10-05T14:14:15.086Z,26.48
2022-10-05T14:16:57.684Z,27.84
2022-10-05T14:19:45.125Z,28.57
2022-10-05T14:22:24.719Z,29.34
2022-10-05T14:25:07.907Z,29.88
2022-10-05T14:27:49.697Z,31.13
2022-10-05T14:30:23.749Z,31.51
2022-10-05T14:33:16.460Z,32.41
2022-10-05T14:35:53.647Z,32.85
2022-10-05T14:38:30.161Z,34.19
2022-10-05T14:41:06.177Z,33.70
2022-10-05T14:43:35.191Z,34.56
2022-10-05T14:46:28.167Z,35.30
2022-10-05T14:49:26.498Z,35.91
2022-10-05T14:51:56.292Z,36.69
2022-10-05T14:54:41.400Z,37.09
2022-10-05T14:57:15.189Z,37.20
2022-10-05T15:00:10.339Z,38.32
2022-10-05T15:03:05.603Z,38.68
2022-10-05T15:05:51.486Z,39.29
2022-10-05T15:08:53.866Z,40.17
2022-10-05T15:11:46.525Z,40.87
2022-10-05T15:14:23.962Z,41.22
2022-10-05T15:16:56.825Z,41.97
2022-10-05T15:19:44.865Z,42.27
2022-10-05T15:22:18.949Z,42.85
2022-10-05T15:24:50.039Z,44.69
2022-10-05T15:27:17.938Z,46.61
2022-10-05T15:30:13.778Z,46.97
2022-10-05T15:32:55.574Z,47.35
2022-10-05T15:35:54.438Z,47.12
2022-10-05T15:38:27.793Z,48.63
2022-10-05T15:41:16.721Z,49.55
2022-10-05T15:44:15.719Z,49.24
2022-10-05T15:46:44.507Z,49.65
2022-10-05T15:49:18.638Z,50.20
2022-10-05T15:51:56.627Z,50.42
2022-10-05T15:54:43.898Z,51.54
2022-10-05T15:57:37.217Z,52.61
2022-10-05T16:00:12.659Z,53.60
2022-10-05T16:03:05.411Z,54.33
2022-10-05T16:06:08.917Z,54.00
2022-10-05T16:08:56.072Z,54.68
2022-10-05T16:12:09.975Z,56.07
2022-10-05T16:14:41.021Z,56.99
2022-10-05T16:17:34.708Z,58.13
2022-10-05T16:20:31.868Z,57.63
2022-10-05T16:23:25.309Z,57.83
2022-10-05T16:25:53.390Z,58.95
2022-10-05T16:28:53.183Z,59.12
2022-10-05T16:31:39.495Z,59.46
2022-10-05T16:34:45.149Z,60.00
2022-10-05T16:37:25.001Z,60.16
2022-10-05T16:39:59.934Z,60.35
2022-10-05T16:43:12.068Z,60.58
2022-10-05T16:45:45.753Z,61.21
2022-10-05T16:48:23.544Z,61.81
2022-10-05T16:51:14.013Z,62.24
2022-10-05T16:53:45.901Z,62.60
2022-10-05T16:56:22.266Z,62.58
2022-10-05T16:58:50.233Z,63.02
2022-10-05T17:01:20.938Z,61.66
2022-10-05T17:04:21.201Z,60.80
2022-10-05T17:07:28.996Z,62.66
2022-10-05T17:10:06.080Z,61.76
2022-10-05T17:12:53.299Z,63.94
2022-10-05T17:15:53.477Z,65.06
2022-10-05T17:18:30.510Z,64.73
2022-10-05T17:21:35.040Z,64.85
2022-10-05T17:24:28.909Z,65.13
2022-10-05T17:27:18.082Z,65.07
2022-10-05T17:30:15.927Z,65.42
2022-10-05T17:32:56.518Z,65.98
2022-10-05T17:35:56.885Z,65.74
2022-10-05T17:38:49.488Z,66.35
2022-10-05T17:41:24.830Z,66.30
2022-10-05T17:44:13.600Z,66.53
2022-10-05T17:46:56.125Z,66.72
2022-10-05T17:49:46.978Z,66.80
2022-10-05T17:52:45.797Z,66.84
2022-10-05T17:55:38.986Z,66.73
2022-10-05T17:58:28.513Z,66.65
2022-10-05T18:00:57.016Z,66.69
2022-10-05T18:03:53.044Z,66.63
2022-10-05T18:06:56.235Z,67.35
2022-10-05T18:09:25.133Z,67.06
2022-10-05T18:12:16.351Z,67.48
2022-10-05T18:15:02.196Z,67.49
2022-10-05T18:17:51.595Z,68.26
2022-10-05T18:20:29.711Z,68.65
2022-10-05T18:23:06.068Z,68.86
2022-10-05T18:25:33.948Z,69.07
2022-10-05T18:28:13.738Z,69.49
2022-10-05T18:30:54.283Z,69.70
2022-10-05T18:33:33.894Z,69.66
2022-10-05T18:36:32.097Z,69.82
2022-10-05T18:39:07.721Z,69.52
2022-10-05T18:41:55.767Z,70.08
2022-10-05T18:44:35.409Z,70.14
2022-10-05T18:47:09.026Z,69.99
2022-10-05T18:50:07.491Z,69.15
2022-10-05T18:52:52.260Z,67.38
2022-10-05T18:55:36.528Z,68.41
2022-10-05T18:58:26.028Z,69.99
2022-10-05T19:01:19.347Z,70.70
2022-10-05T19:04:08.817Z,71.38
2022-10-05T19:06:50.232Z,71.19
2022-10-05T19:09:35.076Z,71.38
2022-10-05T19:12:15.127Z,71.11
2022-10-05T19:15:09.815Z,71.09
2022-10-05T19:17:59.807Z,71.34
2022-10-05T19:20:35.678Z,71.14
2022-10-05T19:23:09.533Z,70.50
2022-10-05T19:25:46.237Z,69.78
2022-10-05T19:28:30.311Z,69.07
2022-10-05T19:31:30.701Z,68.50
2022-10-05T19:34:38.723Z,69.56
2022-10-05T19:37:19.702Z,71.47
2022-10-05T19:39:58.713Z,71.63
2022-10-05T19:43:04.176Z,71.55
2022-10-05T19:45:39.164Z,71.63
2022-10-05T19:48:13.946Z,71.60
2022-10-05T19:50:54.843Z,71.46
2022-10-05T19:53:37.286Z,71.63
2022-10-05T19:56:20.624Z,71.43
2022-10-05T19:58:50.471Z,71.52
2022-10-05T20:01:26.123Z,71.22
2022-10-05T20:03:54.697Z,70.89
2022-10-05T20:06:22.915Z,70.73
2022-10-05T20:08:52.477Z,70.91
2022-10-05T20:11:27.213Z,71.32
2022-10-05T20:13:55.280Z,71.15
2022-10-05T20:16:44.958Z,71.27
2022-10-05T20:19:43.339Z,71.52
2022-10-05T20:22:38.951Z,71.58
2022-10-05T20:25:29.051Z,71.57
2022-10-05T20:27:57.993Z,71.21
2022-10-05T20:30:28.787Z,70.75
2022-10-05T20:32:58.689Z,70.75
2022-10-05T20:35:30.734Z,70.66
2022-10-05T20:38:00.364Z,70.91
2022-10-05T20:40:31.266Z,71.43
2022-10-05T20:42:59.376Z,71.95
2022-10-05T20:45:27.236Z,71.84
2022-10-05T20:47:55.417Z,72.24
2022-10-05T20:50:23.382Z,72.57
2022-10-05T20:52:51.299Z,72.89
2022-10-05T20:55:20.864Z,73.04
2022-10-05T20:57:48.825Z,73.07
2022-10-05T21:00:16.899Z,72.33
2022-10-05T21:02:47.020Z,72.64
2022-10-05T21:05:18.333Z,73.71
2022-10-05T21:07:46.856Z,74.02
2022-10-05T21:10:15.233Z,74.20
2022-10-05T21:12:43.914Z,74.00
2022-10-05T21:15:12.816Z,73.24
2022-10-05T21:17:40.877Z,73.35
2022-10-05T21:20:11.230Z,74.31
2022-10-05T21:22:39.278Z,74.35
2022-10-05T21:25:09.117Z,74.28
2022-10-05T21:27:37.158Z,74.32
2022-10-05T21:30:05.627Z,74.56
2022-10-05T21:32:33.536Z,74.16
2022-10-05T21:35:01.582Z,73.92
2022-10-05T21:37:29.552Z,74.04
2022-10-05T21:39:57.522Z,74.25
2022-10-05T21:42:26.321Z,74.30
2022-10-05T21:44:54.284Z,74.11
2022-10-05T21:47:22.189Z,74.04
2022-10-05T21:49:50.217Z,74.19
2022-10-05T21:52:18.384Z,73.87
2022-10-05T21:54:46.995Z,73.91
2022-10-05T21:57:15.562Z,73.73
2022-10-05T21:59:44.342Z,73.86
2022-10-05T22:02:12.418Z,73.82
2022-10-05T22:04:40.384Z,73.40
2022-10-05T22:07:20.347Z,73.48
2022-10-05T22:09:49.954Z,73.57
2022-10-05T22:12:20.096Z,73.51
2022-10-05T22:14:48.343Z,73.75
2022-10-05T22:17:27.468Z,73.46
2022-10-05T22:19:56.611Z,72.95
2022-10-05T22:22:25.765Z,72.53
2022-10-05T22:24:54.578Z,72.27
2022-10-05T22:27:24.623Z,72.10
2022-10-05T22:29:54.143Z,72.26
2022-10-05T22:32:22.029Z,72.36
2022-10-05T22:34:50.833Z,72.43
2022-10-05T22:37:18.801Z,72.72
2022-10-05T22:39:46.879Z,72.54
2022-10-05T22:42:14.804Z,72.64
2022-10-05T22:44:42.916Z,72.57
2022-10-05T22:47:10.985Z,72.61
2022-10-05T22:49:38.958Z,72.73
2022-10-05T22:52:07.030Z,73.04
2022-10-05T22:54:37.293Z,73.28
2022-10-05T22:57:05.532Z,73.43
2022-10-05T22:59:33.447Z,73.65
2022-10-05T23:02:01.484Z,73.89
2022-10-05T23:04:30.261Z,74.38
2022-10-05T23:06:58.326Z,74.82
2022-10-05T23:09:26.601Z,74.61
2022-10-05T23:11:54.576Z,74.70
2022-10-05T23:14:23.874Z,75.22
2022-10-05T23:16:51.828Z,75.47
2022-10-05T23:19:19.812Z,75.49
2022-10-05T23:21:47.884Z,75.40
2022-10-05T23:24:15.962Z,75.72
2022-10-05T23:26:43.923Z,75.88
2022-10-05T23:29:11.902Z,76.18
2022-10-05T23:31:40.182Z,76.43
2022-10-05T23:34:08.140Z,76.48
2022-10-05T23:36:36.087Z,76.67
2022-10-05T23:39:04.283Z,77.04
2022-10-05T23:41:32.670Z,76.92
2022-10-05T23:44:00.842Z,76.78
2022-10-05T23:46:28.977Z,77.03
2022-10-05T23:48:56.982Z,77.19
2022-10-05T23:51:25.057Z,77.17
2022-10-05T23:53:53.019Z,77.19
2022-10-05T23:56:21.098Z,76.73
2022-10-05T23:58:48.964Z,77.00
